sensor_id;sensor_type;location;lat;lon;timestamp;temperature;humidity
15048;DHT22;7621;52.350;13.308;2023-05-10T02:34:34;10.70;85.00
15048;DHT22;7621;52.350;13.308;2023-05-10T02:37:02;10.60;85.00
15048;DHT22;7621;52.350;13.308;2023-05-10T02:39:30;10.60;85.30
15048;DHT22;7621;52.350;13.308;2023-05-10T02:41:57;10.50;85.40
15048;DHT22;7621;52.350;13.308;2023-05-10T02:44:23;10.50;85.70
15048;DHT22;7621;52.350;13.308;2023-05-10T02:46:51;10.50;86.80
15048;DHT22;7621;52.350;13.308;2023-05-10T02:49:18;10.50;86.20
15048;DHT22;7621;52.350;13.308;2023-05-10T02:51:49;10.50;86.40
15048;DHT22;7621;52.350;13.308;2023-05-10T02:54:19;10.40;86.40
15048;DHT22;7621;52.350;13.308;2023-05-10T02:56:52;10.40;86.40
15048;DHT22;7621;52.350;13.308;2023-05-10T02:59:19;10.30;86.60
15048;DHT22;7621;52.350;13.308;2023-05-10T03:01:44;10.30;86.80
15048;DHT22;7621;52.350;13.308;2023-05-10T03:04:10;10.30;87.00
15048;DHT22;7621;52.350;13.308;2023-05-10T18:20:03;20.80;74.00
15048;DHT22;7621;52.350;13.308;2023-05-10T18:22:29;20.70;74.10
15048;DHT22;7621;52.350;13.308;2023-05-10T18:24:54;20.70;74.00
15048;DHT22;7621;52.350;13.308;2023-05-10T18:27:20;20.60;74.10
15048;DHT22;7621;52.350;13.308;2023-05-10T18:29:45;20.50;74.10
15048;DHT22;7621;52.350;13.308;2023-05-10T18:32:11;20.40;74.20
15048;DHT22;7621;52.350;13.308;2023-05-10T18:34:36;20.30;74.40
15048;DHT22;7621;52.350;13.308;2023-05-10T18:37:02;20.20;74.70
15048;DHT22;7621;52.350;13.308;2023-05-10T18:39:32;20.10;75.10
15048;DHT22;7621;52.350;13.308;2023-05-10T18:41:58;20.00;75.50
15048;DHT22;7621;52.350;13.308;2023-05-10T18:44:23;19.90;76.20
15048;DHT22;7621;52.350;13.308;2023-05-10T18:46:51;19.80;76.70
15048;DHT22;7621;52.350;13.308;2023-05-10T18:49:19;19.70;77.00
15048;DHT22;7621;52.350;13.308;2023-05-10T18:51:44;19.70;77.40
15048;DHT22;7621;52.350;13.308;2023-05-10T18:54:10;19.60;77.80
15048;DHT22;7621;52.350;13.308;2023-05-10T18:56:35;19.60;78.10
15048;DHT22;7621;52.350;13.308;2023-05-10T18:59:01;19.60;78.20
15048;DHT22;7621;52.350;13.308;2023-05-10T19:01:27;19.50;78.50
15048;DHT22;7621;52.350;13.308;2023-05-10T19:03:53;19.50;78.80
15048;DHT22;7621;52.350;13.308;2023-05-10T19:06:18;19.40;79.00
15048;DHT22;7621;52.350;13.308;2023-05-10T19:08:44;19.40;79.20
15048;DHT22;7621;52.350;13.308;2023-05-10T19:11:10;19.30;79.20
15048;DHT22;7621;52.350;13.308;2023-05-10T19:13:35;19.30;79.40
15048;DHT22;7621;52.350;13.308;2023-05-10T19:16:04;19.20;79.50
15048;DHT22;7621;52.350;13.308;2023-05-10T19:18:30;19.20;79.40
15048;DHT22;7621;52.350;13.308;2023-05-10T19:20:56;19.20;79.30
15048;DHT22;7621;52.350;13.308;2023-05-10T19:23:22;19.10;79.40
15048;DHT22;7621;52.350;13.308;2023-05-10T19:25:47;19.10;79.50
15048;DHT22;7621;52.350;13.308;2023-05-10T19:28:13;19.10;79.80
15048;DHT22;7621;52.350;13.308;2023-05-10T19:30:38;19.10;80.00
15048;DHT22;7621;52.350;13.308;2023-05-10T19:33:04;19.00;80.00
15048;DHT22;7621;52.350;13.308;2023-05-10T19:35:30;19.00;80.10
15048;DHT22;7621;52.350;13.308;2023-05-10T19:37:55;18.90;80.90
15048;DHT22;7621;52.350;13.308;2023-05-10T19:40:21;18.90;80.30
15048;DHT22;7621;52.350;13.308;2023-05-10T19:42:47;18.80;80.60
15048;DHT22;7621;52.350;13.308;2023-05-10T19:45:13;18.80;81.00
15048;DHT22;7621;52.350;13.308;2023-05-10T19:47:39;18.70;81.30
15048;DHT22;7621;52.350;13.308;2023-05-10T19:50:07;18.60;81.50
15048;DHT22;7621;52.350;13.308;2023-05-10T19:52:33;18.60;81.90
15048;DHT22;7621;52.350;13.308;2023-05-10T19:54:58;18.50;82.10
15048;DHT22;7621;52.350;13.308;2023-05-10T19:57:24;18.50;82.40
15048;DHT22;7621;52.350;13.308;2023-05-10T19:59:49;18.50;82.60
15048;DHT22;7621;52.350;13.308;2023-05-10T20:02:15;18.50;82.90
15048;DHT22;7621;52.350;13.308;2023-05-10T20:04:41;18.40;83.10
15048;DHT22;7621;52.350;13.308;2023-05-10T20:07:06;18.40;83.40
15048;DHT22;7621;52.350;13.308;2023-05-10T20:09:32;18.40;83.80
15048;DHT22;7621;52.350;13.308;2023-05-10T20:12:00;18.30;84.20
15048;DHT22;7621;52.350;13.308;2023-05-10T20:14:26;18.30;84.60
15048;DHT22;7621;52.350;13.308;2023-05-10T20:16:51;18.30;84.90
15048;DHT22;7621;52.350;13.308;2023-05-10T20:19:17;18.30;85.10
15048;DHT22;7621;52.350;13.308;2023-05-10T20:21:43;18.30;85.30
15048;DHT22;7621;52.350;13.308;2023-05-10T20:24:08;18.20;85.60
15048;DHT22;7621;52.350;13.308;2023-05-10T20:26:34;18.20;85.80
15048;DHT22;7621;52.350;13.308;2023-05-10T20:28:59;18.20;86.10
15048;DHT22;7621;52.350;13.308;2023-05-10T20:31:26;18.20;86.30
15048;DHT22;7621;52.350;13.308;2023-05-10T20:33:51;18.10;86.50
15048;DHT22;7621;52.350;13.308;2023-05-10T20:36:17;18.10;86.80
15048;DHT22;7621;52.350;13.308;2023-05-10T20:38:42;18.10;87.00
15048;DHT22;7621;52.350;13.308;2023-05-10T20:41:08;18.10;87.30
15048;DHT22;7621;52.350;13.308;2023-05-10T20:43:34;18.10;87.50
15048;DHT22;7621;52.350;13.308;2023-05-10T20:45:59;18.10;87.80
15048;DHT22;7621;52.350;13.308;2023-05-10T20:48:32;18.10;88.10
15048;DHT22;7621;52.350;13.308;2023-05-10T20:50:59;18.10;88.50
15048;DHT22;7621;52.350;13.308;2023-05-10T20:53:25;18.10;88.90
15048;DHT22;7621;52.350;13.308;2023-05-10T20:55:51;18.10;89.20
15048;DHT22;7621;52.350;13.308;2023-05-10T20:58:16;18.10;89.60
15048;DHT22;7621;52.350;13.308;2023-05-10T21:00:42;18.10;90.00
15048;DHT22;7621;52.350;13.308;2023-05-10T21:03:07;18.10;90.50
15048;DHT22;7621;52.350;13.308;2023-05-10T21:05:33;18.10;90.20
15048;DHT22;7621;52.350;13.308;2023-05-10T21:07:59;18.10;90.30
15048;DHT22;7621;52.350;13.308;2023-05-10T21:10:24;18.10;90.40
15048;DHT22;7621;52.350;13.308;2023-05-10T21:12:53;18.10;90.50
15048;DHT22;7621;52.350;13.308;2023-05-10T21:15:19;18.10;90.60
